createdAt,value
2022-07-30T00:00:49.041Z,100336.63
2022-07-30T00:01:51.745Z,100335.03
2022-07-30T00:02:53.960Z,100339.94
2022-07-30T00:03:57.851Z,100342.41
2022-07-30T00:05:00.129Z,100336.31
2022-07-30T00:06:02.215Z,100339.09
2022-07-30T00:07:05.033Z,100341.53
2022-07-30T00:08:08.807Z,100337.16
2022-07-30T00:09:10.879Z,100340.31
2022-07-30T00:10:15.822Z,100338.78
2022-07-30T00:11:18.080Z,100334.13
2022-07-30T00:12:20.263Z,100336.44
2022-07-30T00:13:22.429Z,100338.84
2022-07-30T00:14:24.463Z,100341.31
2022-07-30T00:15:26.776Z,100332.53
2022-07-30T00:16:32.179Z,100343.44
2022-07-30T00:17:34.372Z,100337.50
2022-07-30T00:18:37.121Z,100333.41
2022-07-30T00:19:43.133Z,100337.34
2022-07-30T00:20:46.945Z,100339.50
2022-07-30T00:21:54.860Z,100334.88
2022-07-30T00:23:04.126Z,100339.31
2022-07-30T00:24:08.799Z,100333.00
2022-07-30T00:25:11.742Z,100338.25
2022-07-30T00:26:14.173Z,100346.91
2022-07-30T00:27:17.266Z,100336.03
2022-07-30T00:28:21.725Z,100338.34
2022-07-30T00:29:23.775Z,100342.72
2022-07-30T00:30:26.287Z,100335.44
2022-07-30T00:31:28.431Z,100333.41
2022-07-30T00:32:30.675Z,100335.91
2022-07-30T00:33:32.762Z,100331.03
2022-07-30T00:34:35.051Z,100332.06
2022-07-30T00:35:37.518Z,100337.25
2022-07-30T00:36:41.161Z,100337.63
2022-07-30T00:37:43.258Z,100328.91
2022-07-30T00:38:45.853Z,100329.34
2022-07-30T00:39:48.210Z,100334.81
2022-07-30T00:40:50.475Z,100331.75
2022-07-30T00:41:59.473Z,100333.66
2022-07-30T00:43:02.146Z,100338.41
2022-07-30T00:44:05.090Z,100332.75
2022-07-30T00:45:12.292Z,100335.38
2022-07-30T00:46:16.141Z,100336.69
2022-07-30T00:47:21.734Z,100331.53
2022-07-30T00:48:23.806Z,100338.06
2022-07-30T00:49:26.999Z,100329.22
2022-07-30T00:50:29.377Z,100334.81
2022-07-30T00:51:31.454Z,100329.09
2022-07-30T00:52:38.567Z,100330.03
2022-07-30T00:53:41.274Z,100325.66
2022-07-30T00:54:44.918Z,100335.75
2022-07-30T00:55:47.394Z,100337.19
2022-07-30T00:56:52.278Z,100334.00
2022-07-30T00:57:54.374Z,100331.63
2022-07-30T00:58:59.906Z,100330.00
2022-07-30T01:00:05.883Z,100336.06
2022-07-30T01:01:08.101Z,100335.03
2022-07-30T01:02:10.967Z,100325.53
2022-07-30T01:03:14.233Z,100333.34
2022-07-30T01:04:17.529Z,100323.34
2022-07-30T01:05:20.721Z,100319.78
2022-07-30T01:06:22.976Z,100325.53
2022-07-30T01:07:27.208Z,100321.88
2022-07-30T01:08:29.579Z,100325.91
2022-07-30T01:09:31.679Z,100320.06
2022-07-30T01:10:34.497Z,100315.66
2022-07-30T01:11:41.261Z,100320.50
2022-07-30T01:12:44.615Z,100313.41
2022-07-30T01:13:47.335Z,100319.78
2022-07-30T01:14:49.894Z,100326.88
2022-07-30T01:15:51.991Z,100322.50
2022-07-30T01:16:54.703Z,100323.28
2022-07-30T01:18:00.471Z,100326.88
2022-07-30T01:19:26.842Z,100325.59
2022-07-30T01:20:33.757Z,100329.81
2022-07-30T01:21:39.996Z,100320.59
2022-07-30T01:23:13.599Z,100326.53
2022-07-30T01:24:31.014Z,100321.91
2022-07-30T01:25:56.397Z,100326.66
2022-07-30T01:27:00.560Z,100324.22
2022-07-30T01:28:18.530Z,100323.34
2022-07-30T01:29:23.155Z,100322.63
2022-07-30T01:30:30.216Z,100320.31
2022-07-30T01:31:35.466Z,100320.31
2022-07-30T01:32:42.284Z,100330.25
2022-07-30T01:33:47.761Z,100324.72
2022-07-30T01:34:52.439Z,100319.41
2022-07-30T01:36:02.138Z,100324.34
2022-07-30T01:37:09.177Z,100321.09
2022-07-30T01:38:16.841Z,100320.28
2022-07-30T01:39:21.552Z,100323.06
2022-07-30T01:40:26.983Z,100321.81
2022-07-30T01:41:32.520Z,100324.16
2022-07-30T01:42:40.269Z,100322.47
2022-07-30T01:43:45.669Z,100325.81
2022-07-30T01:44:50.512Z,100326.53
2022-07-30T01:45:56.973Z,100322.56
2022-07-30T01:47:00.531Z,100321.72
2022-07-30T01:48:05.885Z,100325.06
2022-07-30T01:49:09.597Z,100330.50
2022-07-30T01:50:17.225Z,100325.19
2022-07-30T01:51:22.076Z,100338.16
2022-07-30T01:52:31.199Z,100330.78
2022-07-30T01:53:38.109Z,100329.16
2022-07-30T01:54:44.627Z,100326.31
2022-07-30T01:55:48.768Z,100330.66
2022-07-30T01:56:54.312Z,100329.09
2022-07-30T01:58:01.471Z,100330.72
2022-07-30T01:59:07.098Z,100333.91
2022-07-30T02:00:12.252Z,100333.47
2022-07-30T02:01:25.703Z,100335.59
2022-07-30T02:02:39.719Z,100332.75
2022-07-30T02:03:43.164Z,100338.41
2022-07-30T02:04:45.472Z,100336.03
2022-07-30T02:05:54.098Z,100343.81
2022-07-30T02:07:32.365Z,100342.63
2022-07-30T02:09:10.751Z,100347.13
2022-07-30T02:10:26.813Z,100345.31
2022-07-30T02:11:55.790Z,100350.41
2022-07-30T02:13:02.007Z,100341.50
2022-07-30T02:14:10.962Z,100339.91
2022-07-30T02:15:30.642Z,100335.91
2022-07-30T02:16:38.375Z,100346.06
2022-07-30T02:18:03.024Z,100344.69
2022-07-30T02:19:14.691Z,100336.66
2022-07-30T02:20:19.298Z,100342.16
2022-07-30T02:21:36.734Z,100342.97
2022-07-30T02:22:42.797Z,100336.09
2022-07-30T02:23:46.639Z,100333.00
2022-07-30T02:24:52.638Z,100340.72
2022-07-30T02:26:00.589Z,100340.97
2022-07-30T02:27:08.862Z,100348.22
2022-07-30T02:28:14.935Z,100340.16
2022-07-30T02:29:19.975Z,100341.13
2022-07-30T02:30:30.022Z,100343.78
2022-07-30T02:31:33.906Z,100343.16
2022-07-30T02:32:41.150Z,100345.06
2022-07-30T02:33:48.788Z,100343.59
2022-07-30T02:34:57.633Z,100352.16
2022-07-30T02:36:01.087Z,100344.97
2022-07-30T02:37:05.661Z,100346.31
2022-07-30T02:38:15.289Z,100351.66
2022-07-30T02:39:19.374Z,100353.94
2022-07-30T02:40:23.986Z,100355.03
2022-07-30T02:41:29.955Z,100349.38
2022-07-30T02:42:33.302Z,100349.97
2022-07-30T02:43:37.189Z,100354.19
2022-07-30T02:44:44.028Z,100350.34
2022-07-30T02:45:49.907Z,100360.66
2022-07-30T02:46:56.749Z,100365.38
2022-07-30T02:48:35.096Z,100357.38
2022-07-30T02:49:42.147Z,100359.72
2022-07-30T02:50:46.008Z,100364.28
2022-07-30T02:51:49.541Z,100367.13
2022-07-30T02:52:53.571Z,100364.47
2022-07-30T02:53:57.370Z,100361.09
2022-07-30T02:55:01.341Z,100363.47
2022-07-30T02:56:08.260Z,100366.16
2022-07-30T02:57:11.728Z,100375.22
2022-07-30T02:58:19.525Z,100372.31
2022-07-30T02:59:26.291Z,100367.47
2022-07-30T03:00:31.112Z,100365.94
2022-07-30T03:01:35.542Z,100369.22
2022-07-30T03:02:40.181Z,100370.94
2022-07-30T03:03:47.067Z,100371.66
2022-07-30T03:04:54.192Z,100374.00
2022-07-30T03:06:00.661Z,100378.69
2022-07-30T03:07:08.177Z,100374.56
2022-07-30T03:08:11.563Z,100381.19
2022-07-30T03:09:16.843Z,100377.06
2022-07-30T03:10:19.345Z,100377.44
2022-07-30T03:11:24.262Z,100381.97
2022-07-30T03:12:30.264Z,100382.31
2022-07-30T03:13:32.737Z,100377.03
2022-07-30T03:14:34.844Z,100376.53
2022-07-30T03:15:50.810Z,100377.41
2022-07-30T03:17:01.571Z,100376.03
2022-07-30T03:18:05.704Z,100374.91
2022-07-30T03:19:10.302Z,100372.97
2022-07-30T03:20:19.233Z,100382.41
2022-07-30T03:21:26.400Z,100380.72
2022-07-30T03:22:33.033Z,100371.81
2022-07-30T03:23:38.126Z,100374.56
2022-07-30T03:24:44.075Z,100375.78
2022-07-30T03:25:55.137Z,100372.22
2022-07-30T03:26:58.873Z,100372.66
2022-07-30T03:28:04.017Z,100373.88
2022-07-30T03:29:09.689Z,100374.06
2022-07-30T03:30:13.918Z,100380.81
2022-07-30T03:31:18.795Z,100379.31
2022-07-30T03:32:26.095Z,100375.47
2022-07-30T03:33:38.285Z,100376.41
2022-07-30T03:34:43.777Z,100372.47
2022-07-30T03:35:49.045Z,100380.81
2022-07-30T03:36:51.798Z,100385.19
2022-07-30T03:37:58.053Z,100378.88
2022-07-30T03:39:00.482Z,100376.91
2022-07-30T03:40:03.960Z,100381.56
2022-07-30T03:41:07.892Z,100372.03
2022-07-30T03:42:12.697Z,100381.22
2022-07-30T03:43:32.626Z,100379.84
2022-07-30T03:44:38.075Z,100379.38
2022-07-30T03:45:44.600Z,100377.47
2022-07-30T03:46:50.714Z,100377.44
2022-07-30T03:47:53.976Z,100376.41
2022-07-30T03:48:58.016Z,100379.06
2022-07-30T03:50:01.090Z,100384.31
2022-07-30T03:51:07.639Z,100378.34
2022-07-30T03:52:10.507Z,100382.47
2022-07-30T03:53:13.427Z,100381.50
2022-07-30T03:54:48.591Z,100375.25
2022-07-30T03:56:15.366Z,100388.09
2022-07-30T03:57:38.167Z,100382.72
2022-07-30T03:58:40.820Z,100382.09
2022-07-30T03:59:45.299Z,100390.41
2022-07-30T04:00:49.765Z,100389.97
2022-07-30T04:01:52.138Z,100389.97
2022-07-30T04:03:24.014Z,100388.44
2022-07-30T04:04:27.378Z,100402.03
2022-07-30T04:05:37.544Z,100391.91
2022-07-30T04:06:43.418Z,100397.84
2022-07-30T04:07:45.975Z,100399.03
2022-07-30T04:08:55.293Z,100388.13
2022-07-30T04:09:57.949Z,100387.78
2022-07-30T04:11:21.544Z,100395.72
2022-07-30T04:12:44.442Z,100393.91
2022-07-30T04:13:46.783Z,100395.72
2022-07-30T04:14:48.928Z,100394.66
2022-07-30T04:16:39.018Z,100398.28
2022-07-30T04:17:41.342Z,100394.13
2022-07-30T04:18:49.226Z,100392.75
2022-07-30T04:20:24.608Z,100393.00
2022-07-30T04:21:28.127Z,100396.72
2022-07-30T04:22:35.106Z,100399.19
2022-07-30T04:24:02.910Z,100396.19
2022-07-30T04:25:06.552Z,100395.13
2022-07-30T04:26:09.623Z,100393.31
2022-07-30T04:27:12.300Z,100393.28
2022-07-30T04:28:14.948Z,100391.25
2022-07-30T04:29:22.582Z,100398.69
2022-07-30T04:30:27.977Z,100402.25
2022-07-30T04:31:40.014Z,100399.94
2022-07-30T04:33:09.816Z,100399.91
2022-07-30T04:34:28.728Z,100397.34
2022-07-30T04:35:50.126Z,100403.50
2022-07-30T04:37:16.257Z,100410.53
2022-07-30T04:38:18.729Z,100404.38
2022-07-30T04:39:24.956Z,100398.69
2022-07-30T04:40:27.032Z,100401.75
2022-07-30T04:41:29.974Z,100401.25
2022-07-30T04:43:08.433Z,100405.16
2022-07-30T04:44:13.148Z,100403.84
2022-07-30T04:45:24.819Z,100403.66
2022-07-30T04:46:30.310Z,100408.53
2022-07-30T04:47:32.351Z,100407.28
2022-07-30T04:49:05.444Z,100406.88
2022-07-30T04:50:11.589Z,100402.91
2022-07-30T04:51:20.166Z,100411.19
2022-07-30T04:52:23.038Z,100414.44
2022-07-30T04:53:28.895Z,100417.97
2022-07-30T04:54:53.386Z,100421.47
2022-07-30T04:55:57.560Z,100421.13
2022-07-30T04:57:02.736Z,100414.66
2022-07-30T04:58:07.344Z,100417.81
2022-07-30T04:59:11.351Z,100415.91
2022-07-30T05:00:14.158Z,100415.22
2022-07-30T05:01:40.099Z,100413.03
2022-07-30T05:02:45.744Z,100416.72
2022-07-30T05:03:48.243Z,100411.53
2022-07-30T05:04:51.091Z,100417.50
2022-07-30T05:05:57.251Z,100420.25
2022-07-30T05:07:03.366Z,100414.16
2022-07-30T05:08:05.868Z,100415.25
2022-07-30T05:09:08.335Z,100410.16
2022-07-30T05:10:12.581Z,100423.09
2022-07-30T05:11:16.960Z,100421.50
2022-07-30T05:12:19.101Z,100420.88
2022-07-30T05:13:22.493Z,100413.22
2022-07-30T05:14:36.750Z,100420.03
2022-07-30T05:15:39.010Z,100425.06
2022-07-30T05:16:43.250Z,100411.47
2022-07-30T05:17:46.067Z,100416.91
2022-07-30T05:18:48.733Z,100414.56
2022-07-30T05:19:50.746Z,100417.72
2022-07-30T05:20:54.796Z,100422.75
2022-07-30T05:22:23.250Z,100405.19
2022-07-30T05:23:25.393Z,100413.94
2022-07-30T05:24:43.581Z,100411.66
2022-07-30T05:25:45.638Z,100407.41
2022-07-30T05:26:52.125Z,100409.88
2022-07-30T05:27:57.014Z,100420.81
2022-07-30T05:29:00.071Z,100415.00
2022-07-30T05:30:12.020Z,100413.47
2022-07-30T05:31:25.789Z,100422.75
2022-07-30T05:32:34.673Z,100417.13
2022-07-30T05:33:42.390Z,100421.13
2022-07-30T05:34:49.807Z,100422.13
2022-07-30T05:35:53.322Z,100415.28
2022-07-30T05:36:55.538Z,100421.88
2022-07-30T05:37:59.757Z,100424.94
2022-07-30T05:39:16.510Z,100430.25
2022-07-30T05:40:27.359Z,100423.78
2022-07-30T05:41:55.326Z,100423.91
2022-07-30T05:43:16.507Z,100419.09
2022-07-30T05:44:22.144Z,100411.38
2022-07-30T05:45:28.632Z,100419.03
2022-07-30T05:46:31.469Z,100421.88
2022-07-30T05:47:34.539Z,100424.00
2022-07-30T05:48:36.923Z,100422.06
2022-07-30T05:49:38.976Z,100422.69
2022-07-30T05:50:44.617Z,100427.28
2022-07-30T05:51:46.738Z,100426.94
2022-07-30T05:52:48.993Z,100427.59
2022-07-30T05:54:09.620Z,100426.91
2022-07-30T05:55:32.173Z,100430.41
2022-07-30T05:56:50.751Z,100438.56
2022-07-30T05:57:59.925Z,100431.94
2022-07-30T05:59:03.523Z,100438.97
2022-07-30T06:00:25.900Z,100443.81
2022-07-30T06:01:29.859Z,100443.31
2022-07-30T06:02:35.650Z,100433.75
2022-07-30T06:03:57.685Z,100430.59
2022-07-30T06:05:18.240Z,100433.78
2022-07-30T06:06:23.360Z,100424.06
2022-07-30T06:07:26.742Z,100431.03
2022-07-30T06:08:33.625Z,100429.03
2022-07-30T06:09:36.940Z,100425.59
2022-07-30T06:10:40.924Z,100422.56
2022-07-30T06:11:45.936Z,100417.31
2022-07-30T06:12:48.773Z,100420.25
2022-07-30T06:13:53.161Z,100424.88
2022-07-30T06:14:56.130Z,100419.81
2022-07-30T06:16:04.833Z,100419.03
2022-07-30T06:17:07.673Z,100423.09
2022-07-30T06:18:29.738Z,100416.22
2022-07-30T06:19:32.794Z,100420.22
2022-07-30T06:20:35.263Z,100419.34
2022-07-30T06:22:05.405Z,100418.47
2022-07-30T06:23:17.095Z,100429.16
2022-07-30T06:24:37.840Z,100421.56
2022-07-30T06:25:49.632Z,100430.25
2022-07-30T06:26:52.080Z,100419.97
2022-07-30T06:27:54.839Z,100420.53
2022-07-30T06:28:57.115Z,100416.56
2022-07-30T06:30:07.339Z,100411.25
2022-07-30T06:31:09.600Z,100423.72
2022-07-30T06:32:12.376Z,100410.81
2022-07-30T06:33:15.732Z,100420.00
2022-07-30T06:34:18.358Z,100413.78
2022-07-30T06:35:20.554Z,100411.34
2022-07-30T06:36:22.745Z,100407.28
2022-07-30T06:38:05.946Z,100422.00
2022-07-30T06:38:57.743Z,100414.47
2022-07-30T06:40:14.442Z,100418.56
2022-07-30T06:41:45.713Z,100411.50
2022-07-30T06:42:49.650Z,100419.00
2022-07-30T06:44:23.850Z,100417.63
2022-07-30T06:45:39.702Z,100418.69
2022-07-30T06:46:55.816Z,100420.44
2022-07-30T06:48:00.909Z,100411.16
2022-07-30T06:49:06.785Z,100416.09
2022-07-30T06:50:09.918Z,100418.09
2022-07-30T06:51:13.720Z,100419.44
2022-07-30T06:52:18.787Z,100412.72
2022-07-30T06:53:25.909Z,100413.47
2022-07-30T06:54:53.828Z,100407.00
2022-07-30T06:56:21.418Z,100412.94
2022-07-30T06:57:35.498Z,100415.31
2022-07-30T06:58:46.233Z,100410.41
2022-07-30T07:00:08.232Z,100408.97
2022-07-30T07:01:14.196Z,100411.06
2022-07-30T07:02:16.582Z,100413.41
2022-07-30T07:03:44.754Z,100409.53
2022-07-30T07:04:47.033Z,100412.16
2022-07-30T07:05:50.331Z,100412.66
2022-07-30T07:06:55.383Z,100414.56
2022-07-30T07:08:04.577Z,100414.22
2022-07-30T07:09:10.703Z,100421.75
2022-07-30T07:10:32.124Z,100421.09
2022-07-30T07:11:47.874Z,100418.53
2022-07-30T07:12:53.680Z,100422.91
2022-07-30T07:13:56.115Z,100426.97
2022-07-30T07:15:08.869Z,100417.03
2022-07-30T07:16:12.027Z,100431.38
2022-07-30T07:17:18.348Z,100428.31
2022-07-30T07:18:49.854Z,100434.50
2022-07-30T07:20:01.253Z,100417.97
2022-07-30T07:21:10.035Z,100424.94
2022-07-30T07:22:12.751Z,100421.75
2022-07-30T07:23:15.745Z,100425.88
2022-07-30T07:24:23.474Z,100423.16
2022-07-30T07:25:31.876Z,100422.00
2022-07-30T07:26:34.447Z,100420.88
2022-07-30T07:27:40.333Z,100412.66
2022-07-30T07:28:42.920Z,100426.19
2022-07-30T07:30:05.224Z,100426.25
2022-07-30T07:31:09.626Z,100410.09
2022-07-30T07:32:11.970Z,100414.59
2022-07-30T07:33:16.332Z,100421.50
2022-07-30T07:34:20.439Z,100417.50
2022-07-30T07:35:22.573Z,100415.59
2022-07-30T07:36:30.445Z,100416.09
2022-07-30T07:37:32.778Z,100420.28
2022-07-30T07:38:35.180Z,100418.72
2022-07-30T07:39:42.051Z,100413.41
2022-07-30T07:40:44.991Z,100412.41
2022-07-30T07:41:48.409Z,100414.28
2022-07-30T07:42:53.348Z,100414.19
2022-07-30T07:43:55.532Z,100415.75
2022-07-30T07:45:07.398Z,100407.19
2022-07-30T07:46:17.355Z,100408.50
2022-07-30T07:47:51.973Z,100406.47
2022-07-30T07:49:18.893Z,100407.34
2022-07-30T07:50:25.116Z,100411.03
2022-07-30T07:51:47.569Z,100401.06
2022-07-30T07:52:50.654Z,100406.03
2022-07-30T07:54:19.740Z,100398.34
2022-07-30T07:55:16.062Z,100401.72
2022-07-30T07:56:18.268Z,100396.78
2022-07-30T07:57:20.373Z,100388.00
2022-07-30T07:58:25.391Z,100401.63
2022-07-30T07:59:39.939Z,100385.06
2022-07-30T08:00:48.891Z,100400.03
2022-07-30T08:01:53.395Z,100395.78
2022-07-30T08:03:19.022Z,100386.88
2022-07-30T08:04:21.137Z,100392.78
2022-07-30T08:06:01.985Z,100390.09
2022-07-30T08:07:40.478Z,100397.34
2022-07-30T08:09:02.328Z,100399.97
2022-07-30T08:10:23.597Z,100382.88
2022-07-30T08:11:25.765Z,100390.38
2022-07-30T08:12:54.154Z,100387.25
2022-07-30T08:14:16.507Z,100397.84
2022-07-30T08:15:36.995Z,100383.69
2022-07-30T08:16:53.693Z,100393.69
2022-07-30T08:18:25.985Z,100391.31
2022-07-30T08:19:51.580Z,100384.22
2022-07-30T08:20:56.896Z,100382.03
2022-07-30T08:22:06.359Z,100379.63
2022-07-30T08:23:10.604Z,100385.81
2022-07-30T08:24:13.069Z,100387.88
2022-07-30T08:25:22.447Z,100385.22
2022-07-30T08:26:27.343Z,100386.69
2022-07-30T08:27:30.345Z,100381.47
2022-07-30T08:28:36.407Z,100382.91
2022-07-30T08:29:39.900Z,100379.34
2022-07-30T08:30:42.039Z,100379.03
2022-07-30T08:31:44.373Z,100376.63
2022-07-30T08:32:46.516Z,100371.16
2022-07-30T08:33:48.933Z,100367.44
2022-07-30T08:34:51.419Z,100369.28
2022-07-30T08:35:58.933Z,100376.44
2022-07-30T08:37:04.924Z,100372.16
2022-07-30T08:38:07.032Z,100367.63
2022-07-30T08:39:09.553Z,100376.00
2022-07-30T08:40:12.133Z,100377.59
2022-07-30T08:41:26.337Z,100369.31
2022-07-30T08:42:29.474Z,100368.78
2022-07-30T08:43:33.368Z,100368.69
2022-07-30T08:44:36.025Z,100364.78
2022-07-30T08:45:40.250Z,100375.81
2022-07-30T08:47:06.214Z,100377.22
2022-07-30T08:48:35.881Z,100367.34
2022-07-30T08:49:40.904Z,100354.94
2022-07-30T08:50:45.063Z,100358.66
2022-07-30T08:52:08.882Z,100365.78
2022-07-30T08:53:17.818Z,100357.53
2022-07-30T08:54:20.385Z,100352.31
2022-07-30T08:55:23.485Z,100358.66
2022-07-30T08:56:25.630Z,100357.75
2022-07-30T08:57:31.394Z,100355.06
2022-07-30T08:58:37.570Z,100360.06
2022-07-30T08:59:59.469Z,100355.78
2022-07-30T09:01:06.729Z,100357.13
2022-07-30T09:02:13.105Z,100352.06
2022-07-30T09:03:32.920Z,100347.78
2022-07-30T09:04:38.063Z,100345.41
2022-07-30T09:05:42.276Z,100345.03
2022-07-30T09:06:45.193Z,100346.81
2022-07-30T09:07:47.271Z,100351.56
2022-07-30T09:08:55.055Z,100353.19
2022-07-30T09:09:58.618Z,100355.13
2022-07-30T09:11:03.892Z,100349.13
2022-07-30T09:12:32.624Z,100360.97
2022-07-30T09:13:41.997Z,100354.22
2022-07-30T09:15:05.459Z,100349.28
2022-07-30T09:16:18.302Z,100355.81
2022-07-30T09:17:20.861Z,100356.97
2022-07-30T09:18:34.524Z,100353.06
2022-07-30T09:19:37.106Z,100360.09
2022-07-30T09:20:42.152Z,100352.69
2022-07-30T09:21:59.912Z,100359.25
2022-07-30T09:23:35.075Z,100355.59
2022-07-30T09:25:00.544Z,100348.19
2022-07-30T09:27:07.713Z,100352.03
2022-07-30T09:28:33.537Z,100343.94
2022-07-30T09:29:59.560Z,100342.06
2022-07-30T09:31:22.186Z,100347.28
2022-07-30T09:33:03.656Z,100345.31
2022-07-30T09:34:32.194Z,100342.75
2022-07-30T09:35:43.580Z,100344.31
2022-07-30T09:36:45.676Z,100347.94
2022-07-30T09:38:06.016Z,100344.88
2022-07-30T09:39:39.859Z,100353.53
2022-07-30T09:41:17.240Z,100349.19
2022-07-30T09:42:44.547Z,100347.56
2022-07-30T09:43:51.703Z,100347.19
2022-07-30T09:45:16.174Z,100345.19
2022-07-30T09:46:20.542Z,100350.91
2022-07-30T09:47:32.045Z,100349.66
2022-07-30T09:48:34.250Z,100345.53
2022-07-30T09:49:37.477Z,100343.28
2022-07-30T09:50:49.987Z,100347.59
2022-07-30T09:51:55.623Z,100349.13
2022-07-30T09:53:11.984Z,100345.63
2022-07-30T09:54:18.439Z,100347.09
2022-07-30T09:55:34.086Z,100343.91
2022-07-30T09:56:36.330Z,100348.56
2022-07-30T09:58:02.122Z,100356.09
2022-07-30T09:59:04.552Z,100346.50
2022-07-30T10:00:23.631Z,100351.41
2022-07-30T10:01:54.894Z,100356.53
2022-07-30T10:03:43.665Z,100356.81
2022-07-30T10:05:16.120Z,100352.22
2022-07-30T10:06:18.408Z,100348.75
2022-07-30T10:07:25.415Z,100344.63
2022-07-30T10:08:48.162Z,100347.66
2022-07-30T10:09:52.684Z,100337.81
2022-07-30T10:10:56.101Z,100345.78
2022-07-30T10:12:02.641Z,100341.59
2022-07-30T10:13:09.109Z,100336.53
2022-07-30T10:14:16.584Z,100332.84
2022-07-30T10:15:21.120Z,100345.81
2022-07-30T10:16:26.912Z,100347.09
2022-07-30T10:17:32.021Z,100347.41
2022-07-30T10:18:57.603Z,100344.50
2022-07-30T10:20:28.904Z,100343.72
2022-07-30T10:21:58.198Z,100344.66
2022-07-30T10:23:27.041Z,100339.97
2022-07-30T10:24:48.861Z,100342.81
2022-07-30T10:26:24.775Z,100338.09
2022-07-30T10:27:48.014Z,100334.03
2022-07-30T10:29:00.243Z,100335.59
2022-07-30T10:30:05.696Z,100333.34
2022-07-30T10:31:46.440Z,100335.88
2022-07-30T10:32:31.820Z,100339.97
2022-07-30T10:33:40.040Z,100331.63
2022-07-30T10:34:43.778Z,100330.97
2022-07-30T10:35:45.879Z,100334.16
2022-07-30T10:36:58.470Z,100335.75
2022-07-30T10:38:01.467Z,100325.56
2022-07-30T10:39:06.109Z,100321.88
2022-07-30T10:40:23.106Z,100332.53
2022-07-30T10:41:48.569Z,100333.94
2022-07-30T10:43:17.529Z,100322.50
2022-07-30T10:44:44.094Z,100330.72
2022-07-30T10:46:05.742Z,100332.00
2022-07-30T10:47:16.620Z,100332.16
2022-07-30T10:48:19.889Z,100323.59
2022-07-30T10:49:22.065Z,100332.00
2022-07-30T10:50:29.312Z,100335.41
2022-07-30T10:51:51.226Z,100331.47
2022-07-30T10:53:01.313Z,100329.56
2022-07-30T10:54:03.689Z,100335.22
2022-07-30T10:55:16.069Z,100329.25
2022-07-30T10:56:22.410Z,100332.34
2022-07-30T10:57:32.127Z,100339.00
2022-07-30T10:59:03.174Z,100332.28
2022-07-30T11:00:05.391Z,100331.44
2022-07-30T11:01:17.927Z,100336.38
2022-07-30T11:02:21.221Z,100332.28
2022-07-30T11:03:43.945Z,100327.00
2022-07-30T11:04:48.232Z,100321.84
2022-07-30T11:05:52.750Z,100321.97
2022-07-30T11:07:27.912Z,100329.44
2022-07-30T11:08:36.932Z,100321.28
2022-07-30T11:09:42.916Z,100317.16
2022-07-30T11:10:45.173Z,100330.66
2022-07-30T11:12:02.201Z,100318.09
2022-07-30T11:13:10.493Z,100314.44
2022-07-30T11:14:13.167Z,100323.75
2022-07-30T11:15:18.619Z,100322.06
2022-07-30T11:16:24.152Z,100315.75
2022-07-30T11:17:26.820Z,100328.00
2022-07-30T11:18:29.084Z,100325.09
2022-07-30T11:19:55.675Z,100316.97
2022-07-30T11:21:15.075Z,100308.19
2022-07-30T11:22:40.713Z,100324.09
2022-07-30T11:23:44.646Z,100310.91
2022-07-30T11:24:49.007Z,100316.03
2022-07-30T11:25:54.739Z,100319.44
2022-07-30T11:26:57.129Z,100311.66
2022-07-30T11:28:00.969Z,100314.97
2022-07-30T11:29:08.200Z,100317.78
2022-07-30T11:30:17.172Z,100315.75
2022-07-30T11:31:56.626Z,100315.06
2022-07-30T11:33:04.619Z,100319.78
2022-07-30T11:34:18.883Z,100316.13
2022-07-30T11:35:26.339Z,100308.44
2022-07-30T11:36:37.830Z,100313.47
2022-07-30T11:38:03.196Z,100317.50
2022-07-30T11:39:07.531Z,100311.59
2022-07-30T11:40:11.116Z,100309.06
2022-07-30T11:41:13.984Z,100303.13
2022-07-30T11:42:33.077Z,100302.84
2022-07-30T11:43:41.685Z,100301.59
2022-07-30T11:44:47.292Z,100315.06
2022-07-30T11:45:52.863Z,100306.88
2022-07-30T11:46:55.259Z,100309.84
2022-07-30T11:48:00.407Z,100310.63
2022-07-30T11:49:08.815Z,100310.38
2022-07-30T11:50:41.234Z,100313.38
2022-07-30T11:51:45.905Z,100311.28
2022-07-30T11:52:55.225Z,100314.19
2022-07-30T11:54:16.863Z,100318.97
2022-07-30T11:55:33.462Z,100313.00
2022-07-30T11:56:35.582Z,100310.53
2022-07-30T11:57:44.332Z,100304.09
2022-07-30T11:58:46.395Z,100303.38
2022-07-30T11:59:56.469Z,100302.91
2022-07-30T12:01:02.189Z,100312.38
2022-07-30T12:02:04.958Z,100308.06
2022-07-30T12:03:15.819Z,100308.38
2022-07-30T12:04:18.580Z,100313.47
2022-07-30T12:05:26.156Z,100304.00
2022-07-30T12:06:28.766Z,100308.63
2022-07-30T12:07:30.972Z,100302.28
2022-07-30T12:08:44.374Z,100303.72
2022-07-30T12:09:46.532Z,100310.91
2022-07-30T12:11:01.311Z,100301.28
2022-07-30T12:12:23.778Z,100301.81
2022-07-30T12:13:44.066Z,100299.78
2022-07-30T12:14:48.703Z,100299.69
2022-07-30T12:15:51.880Z,100300.88
2022-07-30T12:16:54.824Z,100304.66
2022-07-30T12:18:27.328Z,100304.34
2022-07-30T12:19:23.410Z,100296.78
2022-07-30T12:20:28.538Z,100291.72
2022-07-30T12:21:30.871Z,100294.66
2022-07-30T12:22:33.452Z,100297.94
2022-07-30T12:23:36.352Z,100296.13
2022-07-30T12:24:38.495Z,100299.53
2022-07-30T12:25:47.809Z,100297.53
2022-07-30T12:26:53.598Z,100296.41
2022-07-30T12:27:55.730Z,100302.56
2022-07-30T12:29:06.026Z,100294.13
2022-07-30T12:30:11.701Z,100294.28
2022-07-30T12:31:16.176Z,100294.59
2022-07-30T12:32:18.864Z,100299.84
2022-07-30T12:33:23.062Z,100300.84
2022-07-30T12:34:26.754Z,100294.69
2022-07-30T12:36:04.185Z,100291.19
2022-07-30T12:37:10.609Z,100298.44
2022-07-30T12:38:14.277Z,100288.59
2022-07-30T12:39:24.846Z,100292.53
2022-07-30T12:40:27.101Z,100291.38
2022-07-30T12:41:47.868Z,100296.13
2022-07-30T12:42:53.806Z,100295.19
2022-07-30T12:43:56.657Z,100301.63
2022-07-30T12:45:00.090Z,100292.69
2022-07-30T12:46:02.128Z,100283.34
2022-07-30T12:47:24.101Z,100286.59
2022-07-30T12:48:26.409Z,100293.03
2022-07-30T12:49:39.306Z,100288.13
2022-07-30T12:50:48.085Z,100292.66
2022-07-30T12:51:52.610Z,100288.06
2022-07-30T12:53:02.585Z,100285.38
2022-07-30T12:54:19.421Z,100292.66
2022-07-30T12:55:35.782Z,100282.19
2022-07-30T12:56:39.577Z,100287.97
2022-07-30T12:58:02.891Z,100288.09
2022-07-30T12:59:21.732Z,100286.34
2022-07-30T13:00:25.953Z,100283.19
2022-07-30T13:01:47.302Z,100282.28
2022-07-30T13:02:52.484Z,100287.59
2022-07-30T13:04:05.924Z,100277.72
2022-07-30T13:05:11.597Z,100283.34
2022-07-30T13:06:25.691Z,100281.84
2022-07-30T13:07:32.358Z,100281.25
2022-07-30T13:08:54.438Z,100279.91
2022-07-30T13:10:10.157Z,100279.38
2022-07-30T13:11:13.675Z,100278.75
2022-07-30T13:12:15.827Z,100288.00
2022-07-30T13:13:17.875Z,100286.84